Bei Facebook empfehlenBei Twitter postenGoogle plusPinterest

Das Wetter im Erzgebirge am 08.08.2016

Wetter und Klima am 08.08.2016 Holzhau im Erzgebirge (630m ü.NN)
Letzte gemessene Temperatur und Uhrzeit der Messung23:45:00 Uhr15.10 °C
Temperatur (Maximum / Höchstwert) und Uhrzeit der Messung13:45:00 Uhr27.20 °C
Temperatur (Minimum / Tiefstwert) und Uhrzeit der Messung06:15:009.40 °C
Errechneter Absolutwert der Temperaturschwankungen zwischen Tmin und Tmax des Tages17.80 K
Errechnete Tagesmitteltemperatur18.36771 °C
Gesamt - Niederschlag des Tages (in flüssiger Form)0.00 Liter / m²
Luftdruck (Maximum / Höchstwert) und Zeitpunkt der Messung00:15:00 Uhr1020.50 hPa
Luftdruck (Minimum / Tiefstwert) und Zeitpunkt der Messung20:45:00 Uhr1015.10 hPa
Errechneter Absolutwert der Luftdruckschwankungen des Tages5.40 hPa
Höchste gemessene Windgeschwindigkeit und Uhrzeit der Messung23:45:00 Uhr0.00 km/h
Errechnete Windhäufigkeit in Relation zu den Messwerten des Tages0.00000 %
Niedrigste Windkühle (Windchill) und Zeitpunkt der Messung06:15:00 Uhr9.40 °C
Taupunkt (Maximum / Höchstwert) und Uhrzeit der Messung13:00:00 Uhr17.40 °C
Taupunkt (Minimum / Tiefstwert) und Uhrzeit der Messung06:15:008.20 °C
Anzahl der automatisch eingelesenen Messwerte 96

Detaillierte Wetter- und Klima- Messwerte für den 08.08.2016 in Holzhau im Erzgebirge (630m ü.NN)
ZeitTemperaturLuftdruckRel. LuftfeuchteWindWindrichtungWindchillTaupunktNiederschlag l/m²
23:45:0015.10 °C1016.20 hPa80.00 %11.70 °C 
23:30:0015.30 °C1016.10 hPa79.00 %11.70 °C 
23:15:0015.80 °C1016.00 hPa78.00 %12.00 °C 
23:00:0015.90 °C1016.00 hPa78.00 %12.10 °C 
22:45:0016.10 °C1015.80 hPa79.00 %12.50 °C 
22:30:0015.60 °C1015.80 hPa80.00 %12.20 °C 
22:15:0015.50 °C1015.50 hPa79.00 %11.90 °C 
22:00:0015.90 °C1015.40 hPa78.00 %12.10 °C 
21:45:0016.60 °C1015.60 hPa76.00 %12.40 °C 
21:30:0017.20 °C1015.50 hPa75.00 %12.70 °C 
21:15:0017.60 °C1015.40 hPa74.00 %12.90 °C 
21:00:0018.10 °C1015.40 hPa72.00 %13.00 °C 
20:45:0019.00 °C1015.10 hPa69.00 %13.20 °C 
20:30:0019.90 °C1015.20 hPa67.00 %13.60 °C 
20:15:0020.90 °C1015.10 hPa65.00 %14.10 °C 
20:00:0021.60 °C1015.20 hPa65.00 %14.70 °C 
19:45:0021.80 °C1015.20 hPa64.00 %14.70 °C 
19:30:0022.10 °C1015.30 hPa62.00 %14.50 °C 
19:15:0022.60 °C1015.30 hPa60.00 %14.40 °C 
19:00:0023.30 °C1015.20 hPa58.00 %14.60 °C 
18:45:0023.80 °C1015.20 hPa57.00 %14.80 °C 
18:30:0024.70 °C1015.40 hPa56.00 %15.30 °C 
18:15:0024.80 °C1015.40 hPa57.00 %15.70 °C 
18:00:0024.90 °C1015.30 hPa56.00 %15.50 °C 
17:45:0024.80 °C1015.30 hPa56.00 %15.40 °C 
17:30:0024.90 °C1015.60 hPa57.00 %15.80 °C 
17:15:0024.70 °C1015.60 hPa58.00 %15.90 °C 
17:00:0024.50 °C1015.60 hPa58.00 %15.70 °C 
16:45:0024.40 °C1015.60 hPa58.00 %15.60 °C 
16:30:0024.80 °C1015.60 hPa58.00 %16.00 °C 
16:15:0025.10 °C1015.60 hPa58.00 %16.30 °C 
16:00:0025.50 °C1015.80 hPa57.00 %16.40 °C 
15:45:0025.50 °C1015.80 hPa57.00 %16.40 °C 
15:30:0025.90 °C1015.90 hPa56.00 %16.50 °C 
15:15:0025.90 °C1016.00 hPa55.00 %16.20 °C 
15:00:0025.90 °C1016.00 hPa57.00 %16.70 °C 
14:45:0025.90 °C1016.00 hPa54.00 %15.90 °C 
14:30:0026.40 °C1015.90 hPa53.00 %16.00 °C 
14:15:0026.60 °C1015.90 hPa53.00 %16.20 °C 
14:00:0026.80 °C1016.30 hPa54.00 %16.70 °C 
13:45:0027.20 °C1016.00 hPa54.00 %17.10 °C 
13:30:0026.90 °C1016.40 hPa54.00 %16.80 °C 
13:15:0026.90 °C1016.30 hPa55.00 %17.10 °C 
13:00:0026.30 °C1016.10 hPa58.00 %17.40 °C 
12:45:0025.30 °C1016.40 hPa60.00 %17.00 °C 
12:30:0024.80 °C1016.40 hPa60.00 %16.50 °C 
12:15:0024.60 °C1016.70 hPa60.00 %16.30 °C 
12:00:0024.90 °C1016.80 hPa61.00 %16.90 °C 
11:45:0024.60 °C1017.00 hPa62.00 %16.80 °C 
11:30:0024.10 °C1016.90 hPa62.00 %16.40 °C 
11:15:0024.20 °C1016.90 hPa61.00 %16.20 °C 
11:00:0023.90 °C1017.10 hPa60.00 %15.70 °C 
10:45:0023.10 °C1017.30 hPa62.00 %15.40 °C 
10:30:0022.80 °C1017.20 hPa64.00 %15.60 °C 
10:15:0022.20 °C1017.30 hPa64.00 %15.10 °C 
10:00:0022.10 °C1017.50 hPa65.00 %15.20 °C 
09:45:0021.90 °C1017.50 hPa67.00 %15.50 °C 
09:30:0021.60 °C1017.60 hPa71.00 %16.10 °C 
09:15:0020.90 °C1017.50 hPa72.00 %15.70 °C 
09:00:0020.30 °C1017.60 hPa74.00 %15.50 °C 
08:45:0019.90 °C1017.60 hPa78.00 %16.00 °C 
08:30:0019.20 °C1017.70 hPa83.00 %16.20 °C 
08:15:0018.50 °C1017.80 hPa88.00 %16.50 °C 
08:00:0017.40 °C1017.60 hPa91.00 %15.90 °C 
07:45:0015.80 °C1017.80 hPa93.00 %14.70 °C 
07:30:0013.10 °C1017.70 hPa94.00 %12.20 °C 
07:15:0010.70 °C1017.90 hPa93.00 %9.60 °C 
07:00:0010.10 °C1018.00 hPa93.00 %9.00 °C 
06:45:009.80 °C1018.00 hPa93.00 %8.70 °C 
06:30:009.50 °C1018.00 hPa92.00 %8.30 °C 
06:15:009.40 °C1018.10 hPa92.00 %8.20 °C 
06:00:009.40 °C1018.30 hPa92.00 %8.20 °C 
05:45:009.40 °C1018.40 hPa92.00 %8.20 °C 
05:30:009.40 °C1018.60 hPa92.00 %8.20 °C 
05:15:009.60 °C1018.50 hPa92.00 %8.40 °C 
05:00:009.70 °C1018.50 hPa92.00 %8.50 °C 
04:45:009.80 °C1018.60 hPa92.00 %8.60 °C 
04:30:009.80 °C1018.60 hPa91.00 %8.40 °C 
04:15:009.90 °C1018.80 hPa91.00 %8.50 °C 
04:00:009.90 °C1018.80 hPa91.00 %8.50 °C 
03:45:0010.10 °C1019.00 hPa91.00 %8.70 °C 
03:30:0010.20 °C1019.20 hPa90.00 %8.60 °C 
03:15:0010.30 °C1019.20 hPa90.00 %8.70 °C 
03:00:0010.40 °C1019.30 hPa90.00 %8.80 °C 
02:45:0010.40 °C1019.30 hPa90.00 %8.80 °C 
02:30:0010.40 °C1019.40 hPa90.00 %8.80 °C 
02:15:0010.40 °C1019.60 hPa89.00 %8.70 °C 
02:00:0010.40 °C1019.70 hPa89.00 %8.70 °C 
01:45:0010.60 °C1020.00 hPa88.00 %8.70 °C 
01:30:0011.00 °C1020.00 hPa89.00 %9.30 °C 
01:15:0011.30 °C1019.90 hPa89.00 %9.60 °C 
01:00:0011.40 °C1020.20 hPa88.00 %9.50 °C 
00:45:0011.40 °C1020.40 hPa88.00 %9.50 °C 
00:30:0011.40 °C1020.40 hPa87.00 %9.30 °C 
00:15:0011.50 °C1020.50 hPa87.00 %9.40 °C 
00:00:0011.50 °C1020.50 hPa86.00 %9.20 °C 

Permanenter Link zu dieser Seite: Wetter im Erzgebirge am 08.08.2016
Performance-Info: Die Erstellung der Seite / Statistik(en) / Tabelle(n) erforderte 5 Datenbankserver-Abfrage(n) und dauerte 248 Millisekunden. (Dieser Messwert ist von der Gesamt-Auslastung des Servers abhängig.)
Erzgebirge - Wetter | Erzgebirge - Wetter (Mobilgeräte) | Komplette Klimadatenbank